Terminal Aerodrome Forecast
Issued by NWS

Home | Current Version | Previous Version | Text Only | Print | Product List | Glossary On
Versions: 1 2 3 4 5 6 7 8 9 10 11 12 13 14 15 16 17 18
000
FTUS44 KJAN 291120
TAFHKS
TAF
KHKS 291120Z 2912/3012 16014G22KT P6SM SCT015 BKN025
     FM291400 16020G30KT P6SM SCT035 BKN250
     FM292300 15015G25KT P6SM SCT025
     FM300300 15016KT P6SM BKN025=

USA.gov is the U.S. government's official web portal to all federal, state and local government web resources and services.